Time;durP1;ratioP1;P1;durP2;ratioP2;P2;SDS_P1;SDS_P2;PMS_P1;PMS_P2;Temp;Humidity;BMP_temperature;BMP_pressure;BME280_temperature;BME280_humidity;BME280_pressure;Samples;Min_cycle;Max_cycle;Signal;HPM_P1;HPM_P2
2023/07/23 00:01:09;;;;;;;0.47;0.00;;;;;;;18.14;100.00;99609.16;5015909;28;20503;-49
2023/07/23 00:03:35;;;;;;;0.00;0.00;;;;;;;18.25;100.00;99594.72;5022364;28;20038;-49
2023/07/23 00:06:00;;;;;;;1.65;0.22;;;;;;;18.25;100.00;99588.53;5018335;28;20026;-46
2023/07/23 00:08:25;;;;;;;0.00;0.00;;;;;;;18.13;100.00;99588.78;5015486;28;20516;-57
2023/07/23 00:10:57;;;;;;;0.15;0.00;;;;;;;18.24;100.00;99578.88;5022659;28;20028;-48
2023/07/23 00:13:22;;;;;;;0.80;0.00;;;;;;;18.28;100.00;99571.94;5019856;28;20091;-51
2023/07/23 00:15:48;;;;;;;0.10;0.10;;;;;;;18.44;100.00;99578.94;5019763;28;20021;-47
2023/07/23 00:18:13;;;;;;;2.35;0.00;;;;;;;18.38;100.00;99571.13;5018358;28;20076;-53
2023/07/23 00:20:38;;;;;;;0.98;0.45;;;;;;;18.45;100.00;99567.13;5021465;28;20033;-49
2023/07/23 00:23:04;;;;;;;0.57;0.00;;;;;;;18.36;100.00;99563.34;5021578;28;20482;-44
2023/07/23 00:25:29;;;;;;;3.03;0.70;;;;;;;18.38;100.00;99571.13;5021188;28;20116;-46
2023/07/23 00:27:54;;;;;;;0.47;0.20;;;;;;;18.40;100.00;99561.75;5011719;28;20030;-45
2023/07/23 00:30:20;;;;;;;0.22;0.00;;;;;;;18.30;100.00;99569.75;5020840;28;20488;-48
2023/07/23 00:32:45;;;;;;;0.10;0.00;;;;;;;18.28;100.00;99567.34;5017618;28;20027;-49
2023/07/23 00:35:11;;;;;;;1.08;0.45;;;;;;;18.42;100.00;99559.59;5020323;28;20029;-47
2023/07/23 00:37:36;;;;;;;0.65;0.50;;;;;;;18.31;100.00;99563.34;5014356;28;20037;-48
2023/07/23 00:40:02;;;;;;;0.20;0.00;;;;;;;18.29;100.00;99562.78;5021016;28;20028;-57
2023/07/23 00:42:29;;;;;;;0.05;0.00;;;;;;;18.19;100.00;99554.72;5019141;28;20064;-49
2023/07/23 00:44:54;;;;;;;0.10;0.00;;;;;;;18.20;100.00;99564.34;5016146;28;20038;-47
2023/07/23 00:47:21;;;;;;;0.85;0.20;;;;;;;18.28;100.00;99551.25;5013545;28;20479;-47
2023/07/23 00:49:46;;;;;;;0.38;0.00;;;;;;;18.33;100.00;99547.78;5015319;28;20399;-51
2023/07/23 00:52:13;;;;;;;0.00;0.00;;;;;;;18.35;100.00;99555.56;5019478;28;20055;-46
2023/07/23 00:54:39;;;;;;;0.00;0.00;;;;;;;18.36;100.00;99552.63;5018052;28;20395;-53
2023/07/23 00:57:06;;;;;;;0.90;0.00;;;;;;;18.38;100.00;99555.03;5021927;28;20313;-55
2023/07/23 00:59:32;;;;;;;0.73;0.20;;;;;;;18.43;100.00;99538.94;5018649;28;20156;-48
2023/07/23 01:01:58;;;;;;;0.38;0.10;;;;;;;18.48;100.00;99537.09;5011897;28;20056;-49
2023/07/23 01:04:24;;;;;;;0.43;0.15;;;;;;;18.42;100.00;99530.09;5016234;28;20029;-54
2023/07/23 01:06:50;;;;;;;0.55;0.00;;;;;;;18.45;100.00;99537.59;5021348;28;20060;-53
2023/07/23 01:09:17;;;;;;;0.00;0.00;;;;;;;18.40;100.00;99532.22;5021007;28;20061;-52
2023/07/23 01:11:43;;;;;;;0.10;0.08;;;;;;;18.39;100.00;99533.31;5016295;28;20034;-49
2023/07/23 01:14:09;;;;;;;1.45;0.00;;;;;;;18.35;100.00;99515.31;5014398;28;20555;-53
2023/07/23 01:16:35;;;;;;;0.40;0.00;;;;;;;18.40;100.00;99526.84;5017935;28;20049;-47
2023/07/23 01:19:02;;;;;;;0.00;0.00;;;;;;;18.45;100.00;99520.69;5021992;28;20029;-46
2023/07/23 01:21:27;;;;;;;0.20;0.20;;;;;;;18.47;100.00;99522.03;5019445;28;20045;-50
2023/07/23 01:23:53;;;;;;;0.40;0.00;;;;;;;18.53;100.00;99512.94;5018387;28;20494;-45
2023/07/23 01:26:20;;;;;;;2.20;0.25;;;;;;;18.53;100.00;99521.00;5013021;28;20417;-55
2023/07/23 01:28:46;;;;;;;0.00;0.00;;;;;;;18.62;100.00;99517.78;5020057;28;20048;-50
2023/07/23 01:31:12;;;;;;;0.35;0.20;;;;;;;18.52;100.00;99513.19;5018946;28;20021;-51
2023/07/23 01:33:39;;;;;;;0.45;0.28;;;;;;;18.59;100.00;99515.63;5014192;28;20040;-50
2023/07/23 01:36:05;;;;;;;0.93;0.00;;;;;;;18.73;100.00;99504.06;5017437;28;20054;-49
2023/07/23 01:38:31;;;;;;;0.57;0.17;;;;;;;18.74;100.00;99505.69;5017343;28;20041;-54
2023/07/23 01:40:57;;;;;;;1.30;0.00;;;;;;;18.65;100.00;99509.97;5017514;28;20075;-47
2023/07/23 01:43:23;;;;;;;0.32;0.10;;;;;;;18.83;100.00;99505.19;5020622;28;20032;-49
2023/07/23 01:45:48;;;;;;;0.85;0.43;;;;;;;18.81;100.00;99508.13;5015216;28;20029;-48
2023/07/23 01:48:15;;;;;;;0.13;0.00;;;;;;;18.78;100.00;99511.34;5019726;28;20061;-46
2023/07/23 01:50:40;;;;;;;0.00;0.00;;;;;;;18.87;100.00;99498.19;5014160;28;20068;-46
2023/07/23 01:53:07;;;;;;;0.10;0.00;;;;;;;18.87;100.00;99490.97;5017838;28;20025;-46
2023/07/23 01:55:32;;;;;;;0.00;0.00;;;;;;;18.81;100.00;99489.31;5018922;28;20048;-45
2023/07/23 01:57:58;;;;;;;0.10;0.10;;;;;;;18.82;100.00;99493.66;5020529;28;20029;-51
2023/07/23 02:00:23;;;;;;;0.05;0.00;;;;;;;18.76;100.00;99496.59;5016922;28;20041;-47
2023/07/23 02:02:48;;;;;;;0.28;0.00;;;;;;;18.82;100.00;99496.34;5021738;28;20092;-50
2023/07/23 02:05:14;;;;;;;2.05;0.00;;;;;;;18.77;100.00;99506.25;5019635;28;20112;-49
2023/07/23 02:07:39;;;;;;;0.00;0.00;;;;;;;18.84;100.00;99504.09;5018416;28;20038;-45
2023/07/23 02:10:06;;;;;;;0.00;0.00;;;;;;;18.80;100.00;99489.63;5020127;28;20386;-46
2023/07/23 02:12:33;;;;;;;0.00;0.00;;;;;;;18.74;100.00;99491.44;5023154;28;20041;-52
2023/07/23 02:14:58;;;;;;;0.28;0.00;;;;;;;18.79;100.00;99485.31;5020199;28;20047;-53
2023/07/23 02:17:24;;;;;;;0.00;0.00;;;;;;;18.81;100.00;99489.31;5023249;28;20128;-51
2023/07/23 02:19:49;;;;;;;0.28;0.20;;;;;;;18.82;100.00;99484.75;5023510;28;20116;-48
2023/07/23 02:22:15;;;;;;;0.00;0.00;;;;;;;18.86;100.00;99478.59;5024889;28;20116;-48
2023/07/23 02:24:40;;;;;;;0.45;0.00;;;;;;;18.90;100.00;99476.19;5023020;28;20475;-49
2023/07/23 02:27:05;;;;;;;0.00;0.00;;;;;;;18.94;100.00;99471.88;5024163;28;20120;-48
2023/07/23 02:29:31;;;;;;;0.10;0.10;;;;;;;18.89;100.00;99467.28;5018895;28;20030;-51
2023/07/23 02:31:56;;;;;;;4.50;0.10;;;;;;;18.94;100.00;99479.91;5025772;28;20103;-53
2023/07/23 02:34:21;;;;;;;1.75;0.10;;;;;;;18.87;100.00;99461.41;5019704;28;20114;-50
2023/07/23 02:36:47;;;;;;;6.60;0.20;;;;;;;18.95;100.00;99462.75;5019198;28;20436;-48
2023/07/23 02:39:13;;;;;;;0.10;0.00;;;;;;;18.85;100.00;99471.63;5022707;28;20033;-51
2023/07/23 02:41:39;;;;;;;0.00;0.00;;;;;;;18.93;100.00;99460.31;5023364;28;20053;-47
2023/07/23 02:44:04;;;;;;;0.70;0.00;;;;;;;19.03;100.00;99461.41;5018150;28;20192;-51
2023/07/23 02:46:29;;;;;;;0.00;0.00;;;;;;;19.02;100.00;99460.56;5019935;28;20049;-51
2023/07/23 02:48:55;;;;;;;0.10;0.10;;;;;;;19.06;100.00;99450.09;5018846;28;20070;-47
2023/07/23 02:51:21;;;;;;;0.00;0.00;;;;;;;19.11;100.00;99450.09;5017656;28;20025;-48
2023/07/23 02:53:47;;;;;;;0.20;0.10;;;;;;;19.04;100.00;99447.69;5016917;28;20031;-47
2023/07/23 02:56:12;;;;;;;0.03;0.00;;;;;;;19.15;100.00;99448.44;5012223;28;20029;-47
2023/07/23 02:58:37;;;;;;;0.00;0.00;;;;;;;19.08;100.00;99447.94;5015244;28;20041;-48
2023/07/23 03:01:03;;;;;;;0.82;0.05;;;;;;;19.18;100.00;99450.63;5023830;28;20041;-46
2023/07/23 03:03:28;;;;;;;0.30;0.30;;;;;;;19.12;100.00;99438.25;5020677;28;20044;-50
2023/07/23 03:05:53;;;;;;;0.10;0.10;;;;;;;19.10;100.00;99445.78;5020298;28;20033;-52
2023/07/23 03:08:19;;;;;;;2.53;0.00;;;;;;;19.09;100.00;99446.88;5017187;28;20021;-51
2023/07/23 03:10:44;;;;;;;0.00;0.00;;;;;;;19.23;100.00;99437.13;5022098;28;20049;-46
2023/07/23 03:13:10;;;;;;;0.08;0.08;;;;;;;19.15;100.00;99441.22;5023205;28;20038;-47
2023/07/23 03:15:35;;;;;;;0.40;0.17;;;;;;;19.16;100.00;99442.03;5021844;28;20053;-50
2023/07/23 03:18:02;;;;;;;0.98;0.08;;;;;;;19.03;100.00;99448.75;5015438;28;20394;-50
2023/07/23 03:20:27;;;;;;;1.85;0.10;;;;;;;19.13;100.00;99448.75;5021223;28;20049;-51
2023/07/23 03:22:52;;;;;;;1.67;0.08;;;;;;;19.20;100.00;99443.06;5023586;28;20026;-52
2023/07/23 03:25:18;;;;;;;0.52;0.52;;;;;;;19.18;100.00;99446.03;5020228;28;20033;-48
2023/07/23 03:27:43;;;;;;;1.98;0.00;;;;;;;19.20;100.00;99442.25;5021670;28;20115;-48
2023/07/23 03:30:10;;;;;;;1.33;0.00;;;;;;;19.20;100.00;99453.00;5023221;28;20025;-50
2023/07/23 03:32:35;;;;;;;3.30;0.10;;;;;;;19.20;100.00;99448.44;5009723;28;20310;-48
2023/07/23 03:35:00;;;;;;;0.03;0.00;;;;;;;19.13;100.00;99448.75;5023174;28;20571;-48
2023/07/23 03:37:26;;;;;;;0.00;0.00;;;;;;;19.07;100.00;99449.00;5014427;28;20372;-47
2023/07/23 03:39:51;;;;;;;0.40;0.00;;;;;;;19.21;100.00;99449.28;5020484;28;20045;-50
2023/07/23 03:42:16;;;;;;;0.28;0.00;;;;;;;19.11;100.00;99444.72;5021024;28;20033;-50
2023/07/23 03:44:42;;;;;;;0.45;0.08;;;;;;;19.13;100.00;99438.00;5015310;28;20030;-50
2023/07/23 03:47:15;;;;;;;0.93;0.10;;;;;;;19.24;100.00;99433.38;5020753;28;20033;-51
2023/07/23 03:49:41;;;;;;;0.17;0.10;;;;;;;19.25;100.00;99439.56;5021025;28;20088;-47
2023/07/23 03:52:07;;;;;;;1.02;0.00;;;;;;;19.32;100.00;99440.88;5020809;28;20025;-48
2023/07/23 03:54:34;;;;;;;0.88;0.08;;;;;;;19.34;100.00;99436.03;5017790;28;20368;-53
2023/07/23 03:56:59;;;;;;;0.52;0.00;;;;;;;19.43;100.00;99440.84;5019345;28;20069;-50
2023/07/23 03:59:45;;;;;;;0.88;0.00;;;;;;;19.33;100.00;99437.09;5023035;28;20052;-50
2023/07/23 04:02:11;;;;;;;1.63;0.10;;;;;;;19.23;100.00;99433.66;5022092;28;20072;-48
2023/07/23 04:04:38;;;;;;;0.00;0.00;;;;;;;19.23;100.00;99442.50;5021414;28;20029;-50
2023/07/23 04:07:04;;;;;;;0.32;0.00;;;;;;;19.25;100.00;99440.38;5017641;28;20071;-52
2023/07/23 04:09:29;;;;;;;0.00;0.00;;;;;;;19.29;100.00;99444.13;5020516;28;20284;-52
2023/07/23 04:11:55;;;;;;;0.93;0.00;;;;;;;19.34;100.00;99444.09;5020870;28;20025;-49
2023/07/23 04:14:21;;;;;;;3.30;0.03;;;;;;;19.27;100.00;99438.22;5023094;28;20026;-49
2023/07/23 04:16:46;;;;;;;0.00;0.00;;;;;;;19.39;100.00;99441.41;5016490;28;20037;-48
2023/07/23 04:19:12;;;;;;;0.20;0.08;;;;;;;19.40;100.00;99429.56;5022073;28;20026;-48
2023/07/23 04:21:37;;;;;;;1.77;0.00;;;;;;;19.34;100.00;99436.03;5020022;28;20841;-52
2023/07/23 04:24:03;;;;;;;2.10;0.10;;;;;;;19.35;100.00;99440.34;5019376;28;20025;-52
2023/07/23 04:26:30;;;;;;;0.00;0.00;;;;;;;19.36;100.00;99435.75;5019072;28;20033;-52
2023/07/23 04:28:56;;;;;;;0.70;0.10;;;;;;;19.43;100.00;99443.53;5016349;28;20390;-48
2023/07/23 04:31:21;;;;;;;7.13;0.25;;;;;;;19.47;100.00;99445.41;5019843;28;20497;-51
2023/07/23 04:33:47;;;;;;;2.50;0.10;;;;;;;19.45;100.00;99452.13;5016033;28;20033;-48
2023/07/23 04:36:13;;;;;;;2.30;0.08;;;;;;;19.51;100.00;99443.75;5018635;28;20084;-52
2023/07/23 04:38:40;;;;;;;0.00;0.00;;;;;;;19.47;100.00;99452.69;5014580;28;20037;-52
2023/07/23 04:41:06;;;;;;;3.58;0.20;;;;;;;19.37;100.00;99448.13;5018317;28;20035;-50
2023/07/23 04:43:32;;;;;;;1.20;0.22;;;;;;;19.27;100.00;99451.66;5022111;28;20483;-49
2023/07/23 04:45:58;;;;;;;1.00;0.43;;;;;;;19.32;100.00;99453.53;5013223;28;20038;-52
2023/07/23 04:48:23;;;;;;;5.20;0.10;;;;;;;19.30;100.00;99453.78;5020812;28;20036;-50
2023/07/23 04:50:59;;;;;;;0.90;0.45;;;;;;;19.29;100.00;99457.56;5022720;28;20364;-51
2023/07/23 04:53:24;;;;;;;0.80;0.65;;;;;;;19.40;100.00;99451.06;5017483;28;20450;-47
2023/07/23 04:55:51;;;;;;;1.30;0.20;;;;;;;19.38;100.00;99458.59;5020751;28;20033;-47
2023/07/23 04:58:17;;;;;;;2.30;0.10;;;;;;;19.38;100.00;99450.53;5016157;28;20025;-50
2023/07/23 05:00:42;;;;;;;2.63;0.43;;;;;;;19.37;100.00;99458.88;5016431;28;20103;-48
2023/07/23 05:03:07;;;;;;;2.65;0.10;;;;;;;19.14;100.00;99453.03;5016201;28;20368;-47
2023/07/23 05:05:33;;;;;;;0.30;0.15;;;;;;;19.20;100.00;99453.81;5018987;28;20486;-49
2023/07/23 05:07:58;;;;;;;1.65;0.17;;;;;;;19.26;100.00;99446.53;5023064;28;20043;-51
2023/07/23 05:10:24;;;;;;;1.38;0.28;;;;;;;19.29;100.00;99438.75;5019108;28;20087;-53
2023/07/23 05:12:49;;;;;;;3.63;0.13;;;;;;;19.30;100.00;99445.72;5018346;28;20698;-53
2023/07/23 05:15:15;;;;;;;1.85;0.17;;;;;;;19.26;100.00;99442.00;5020142;28;20057;-51
2023/07/23 05:17:41;;;;;;;2.45;0.95;;;;;;;19.28;100.00;99439.00;5015281;28;20040;-47
2023/07/23 05:20:08;;;;;;;0.30;0.30;;;;;;;19.34;100.00;99454.06;5019981;28;20509;-51
2023/07/23 05:22:36;;;;;;;0.20;0.20;;;;;;;19.44;100.00;99454.03;5018404;28;20037;-53
2023/07/23 05:25:03;;;;;;;0.38;0.30;;;;;;;19.45;100.00;99460.19;5012285;28;20037;-52
2023/07/23 05:27:28;;;;;;;5.05;0.43;;;;;;;17.10;100.00;99498.13;5020984;28;20106;-53
2023/07/23 05:29:54;;;;;;;2.00;0.15;;;;;;;16.25;100.00;99533.50;5018863;28;20482;-52
2023/07/23 05:32:19;;;;;;;1.63;0.32;;;;;;;16.00;100.00;99566.09;5020508;28;20036;-60
2023/07/23 05:34:44;;;;;;;0.47;0.30;;;;;;;15.94;100.00;99587.69;5015455;28;20029;-51
2023/07/23 05:37:10;;;;;;;0.40;0.00;;;;;;;16.40;100.00;99588.22;5021706;28;20030;-49
2023/07/23 05:39:35;;;;;;;1.65;0.30;;;;;;;15.90;100.00;99588.19;5017941;28;20776;-49
2023/07/23 05:42:00;;;;;;;3.13;0.50;;;;;;;16.04;100.00;99588.59;5021161;28;20029;-50
2023/07/23 05:44:26;;;;;;;1.02;0.40;;;;;;;17.42;100.00;99581.94;5016040;28;20424;-51
2023/07/23 05:46:51;;;;;;;2.03;0.20;;;;;;;18.28;100.00;99518.25;5019383;28;20459;-54
2023/07/23 05:49:16;;;;;;;0.82;0.43;;;;;;;16.92;100.00;99534.16;5025436;28;20029;-47
2023/07/23 05:51:42;;;;;;;2.03;0.70;;;;;;;18.24;100.00;99511.81;5025137;28;20438;-46
2023/07/23 05:54:07;;;;;;;0.77;0.28;;;;;;;18.56;100.00;99500.88;5023245;28;20450;-49
2023/07/23 05:56:33;;;;;;;0.50;0.20;;;;;;;18.34;100.00;99498.41;5018984;28;20492;-49
2023/07/23 05:58:58;;;;;;;2.15;0.57;;;;;;;18.00;100.00;99522.19;5017977;28;20034;-53
2023/07/23 06:01:23;;;;;;;3.50;0.30;;;;;;;18.48;100.00;99504.06;5020034;28;20057;-53
2023/07/23 06:03:48;;;;;;;4.32;0.50;;;;;;;18.65;100.00;99501.13;5025381;28;20109;-49
2023/07/23 06:06:14;;;;;;;1.73;0.50;;;;;;;18.78;100.00;99491.75;5023139;28;20074;-48
2023/07/23 06:08:39;;;;;;;2.33;0.22;;;;;;;18.83;100.00;99489.88;5023665;28;20038;-51
2023/07/23 06:11:04;;;;;;;0.88;0.88;;;;;;;18.92;100.00;99490.94;5025419;28;20079;-51
2023/07/23 06:13:30;;;;;;;0.73;0.43;;;;;;;19.04;100.00;99490.66;5020748;28;20030;-53
2023/07/23 06:15:55;;;;;;;2.00;0.55;;;;;;;19.06;100.00;99479.66;5023538;28;20025;-54
2023/07/23 06:18:20;;;;;;;0.73;0.65;;;;;;;19.12;100.00;99483.94;5027384;28;20044;-52
2023/07/23 06:20:45;;;;;;;1.48;0.50;;;;;;;18.99;100.00;99490.66;5021655;28;20390;-52
2023/07/23 06:23:11;;;;;;;1.38;0.55;;;;;;;19.09;100.00;99490.66;5021322;28;20056;-49
2023/07/23 06:25:36;;;;;;;2.92;0.30;;;;;;;19.20;100.00;99499.50;5024703;28;20634;-51
2023/07/23 06:28:01;;;;;;;1.95;0.40;;;;;;;18.96;100.00;99508.13;5021124;28;20104;-53
2023/07/23 06:30:27;;;;;;;1.77;0.60;;;;;;;19.35;100.00;99504.84;5022950;28;20109;-48
2023/07/23 06:32:52;;;;;;;0.93;0.20;;;;;;;18.30;100.00;99508.03;5024357;28;20032;-54
2023/07/23 06:35:17;;;;;;;0.90;0.20;;;;;;;17.92;100.00;99555.69;5023383;28;20033;-51
2023/07/23 06:37:43;;;;;;;0.28;0.17;;;;;;;18.91;100.00;99524.25;5023240;28;20037;-50
2023/07/23 06:40:08;;;;;;;2.97;0.28;;;;;;;19.12;100.00;99506.22;5024982;28;20036;-49
2023/07/23 06:42:34;;;;;;;0.32;0.20;;;;;;;19.34;100.00;99505.91;5027163;28;20076;-52
2023/07/23 06:44:59;;;;;;;0.40;0.20;;;;;;;19.28;100.00;99506.19;5022646;28;20033;-63
2023/07/23 06:47:24;;;;;;;0.50;0.20;;;;;;;19.25;100.00;99506.75;5019745;28;20108;-63
2023/07/23 06:49:50;;;;;;;0.75;0.50;;;;;;;19.20;100.00;99515.63;5021900;28;20029;-51
2023/07/23 06:52:15;;;;;;;1.75;0.20;;;;;;;19.24;100.00;99519.38;5024258;28;20052;-60
2023/07/23 06:54:43;;;;;;;1.98;0.30;;;;;;;19.43;100.00;99511.53;5021520;28;20034;-50
2023/07/23 06:57:09;;;;;;;1.38;0.22;;;;;;;19.51;100.00;99513.66;5021406;28;20641;-53
2023/07/23 06:59:34;;;;;;;0.80;0.30;;;;;;;19.64;100.00;99512.28;5021455;28;20276;-52
2023/07/23 07:02:00;;;;;;;4.00;0.45;;;;;;;19.66;100.00;99520.88;5015918;28;20162;-53
2023/07/23 07:04:25;;;;;;;0.40;0.20;;;;;;;19.61;100.00;99510.94;5020247;28;20041;-53
2023/07/23 07:06:50;;;;;;;0.73;0.60;;;;;;;19.59;100.00;99518.50;5025133;28;20061;-63
2023/07/23 07:09:16;;;;;;;2.47;0.40;;;;;;;19.63;100.00;99517.94;5018292;28;20056;-62
2023/07/23 07:11:42;;;;;;;0.38;0.30;;;;;;;19.58;100.00;99513.38;5021612;28;20041;-55
2023/07/23 07:14:07;;;;;;;6.22;1.17;;;;;;;19.58;100.00;99513.38;5018546;28;20038;-51
2023/07/23 07:16:32;;;;;;;0.55;0.13;;;;;;;19.78;100.00;99523.31;5016956;28;20565;-49
2023/07/23 07:18:58;;;;;;;2.60;0.30;;;;;;;19.90;100.00;99525.66;5019630;28;20033;-49
2023/07/23 07:21:23;;;;;;;1.80;0.70;;;;;;;19.98;100.00;99512.44;5022238;28;20029;-54
2023/07/23 07:23:48;;;;;;;4.43;0.25;;;;;;;20.07;100.00;99509.97;5023143;28;20025;-50
2023/07/23 07:26:14;;;;;;;0.40;0.10;;;;;;;20.16;100.00;99508.31;5022328;28;20037;-51
2023/07/23 07:28:39;;;;;;;2.42;0.25;;;;;;;20.14;100.00;99505.09;5015693;28;20056;-49
2023/07/23 07:31:04;;;;;;;0.50;0.40;;;;;;;20.02;100.00;99512.69;5023328;28;20509;-48
2023/07/23 07:33:30;;;;;;;1.85;0.38;;;;;;;20.06;100.00;99513.75;5023777;28;20091;-49
2023/07/23 07:35:59;;;;;;;1.83;0.73;;;;;;;20.01;100.00;99513.78;5021417;28;20363;-54
2023/07/23 07:38:26;;;;;;;2.60;0.35;;;;;;;20.00;100.00;99512.16;5020337;28;20080;-51
2023/07/23 07:40:52;;;;;;;2.65;0.75;;;;;;;20.11;100.00;99523.66;5016462;28;20026;-50
2023/07/23 07:43:18;;;;;;;0.20;0.15;;;;;;;20.11;100.00;99510.22;5021866;28;20415;-50
2023/07/23 07:45:52;;;;;;;0.15;0.15;;;;;;;20.19;100.00;99520.41;5020429;28;20048;-52
2023/07/23 07:48:20;;;;;;;5.07;0.82;;;;;;;20.29;100.00;99527.59;5014702;28;20359;-54
2023/07/23 07:50:48;;;;;;;2.25;0.73;;;;;;;20.08;100.00;99527.72;5019840;28;20473;-51
2023/07/23 07:53:14;;;;;;;0.20;0.03;;;;;;;20.16;100.00;99537.94;5022655;28;20087;-57
2023/07/23 07:55:41;;;;;;;2.22;0.20;;;;;;;20.18;100.00;99529.56;5019963;28;20767;-56
2023/07/23 07:58:07;;;;;;;0.35;0.10;;;;;;;20.25;100.00;99538.94;5036124;28;20029;-57
2023/07/23 08:00:33;;;;;;;0.20;0.20;;;;;;;20.21;100.00;99540.59;5014925;28;20038;-54
2023/07/23 08:02:59;;;;;;;0.40;0.10;;;;;;;20.29;100.00;99544.59;5024351;28;20041;-54
2023/07/23 08:05:24;;;;;;;0.43;0.10;;;;;;;20.15;100.00;99557.03;5018645;28;20641;-57
2023/07/23 08:07:50;;;;;;;1.05;0.03;;;;;;;20.15;100.00;99557.03;5017917;28;20538;-54
2023/07/23 08:10:16;;;;;;;0.20;0.13;;;;;;;20.03;100.00;99557.34;5020454;28;20498;-53
2023/07/23 08:12:43;;;;;;;0.13;0.03;;;;;;;20.18;100.00;99565.34;5022165;28;21282;-61
2023/07/23 08:15:09;;;;;;;2.13;0.10;;;;;;;20.23;100.00;99554.56;5019755;28;20479;-57
2023/07/23 08:17:35;;;;;;;2.28;0.30;;;;;;;20.40;100.00;99561.47;5012399;28;20043;-52
2023/07/23 08:20:00;;;;;;;0.60;0.00;;;;;;;20.48;100.00;99564.38;5017371;28;20064;-56
2023/07/23 08:22:26;;;;;;;0.60;0.10;;;;;;;20.46;100.00;99565.75;5014742;28;20038;-50
2023/07/23 08:24:51;;;;;;;0.05;0.00;;;;;;;20.42;100.00;99575.44;5020250;28;20364;-58
2023/07/23 08:27:21;;;;;;;2.15;0.65;;;;;;;20.23;100.00;99589.53;5022020;28;20026;-54
2023/07/23 08:29:47;;;;;;;0.00;0.00;;;;;;;20.49;100.00;99581.34;5014017;28;20592;-52
2023/07/23 08:32:19;;;;;;;0.20;0.20;;;;;;;20.59;100.00;99581.31;5020796;28;20022;-57
2023/07/23 08:34:45;;;;;;;0.13;0.10;;;;;;;20.66;100.00;99575.63;5011343;28;20037;-56
2023/07/23 08:37:11;;;;;;;0.05;0.00;;;;;;;20.50;100.00;99580.28;5013475;28;20076;-54
2023/07/23 08:39:36;;;;;;;0.10;0.00;;;;;;;20.67;100.00;99591.47;5015546;28;20029;-52
2023/07/23 08:42:04;;;;;;;0.85;0.30;;;;;;;20.57;100.00;99588.06;5018493;28;20121;-50
2023/07/23 08:44:48;;;;;;;0.40;0.00;;;;;;;20.49;100.00;99590.22;5013571;28;20036;-52
2023/07/23 08:47:14;;;;;;;0.60;0.30;;;;;;;20.37;100.00;99589.75;5028338;28;20181;-54
2023/07/23 08:49:41;;;;;;;2.50;0.50;;;;;;;20.49;100.00;99592.09;5017962;28;20117;-51
2023/07/23 08:52:09;;;;;;;0.40;0.00;;;;;;;20.63;100.00;99598.53;5015400;28;20026;-57
2023/07/23 08:54:36;;;;;;;0.20;0.10;;;;;;;20.62;100.00;99598.78;5016491;28;20049;-51
2023/07/23 08:57:03;;;;;;;0.00;0.00;;;;;;;20.57;100.00;99588.06;5013878;28;20087;-49
2023/07/23 08:59:30;;;;;;;1.20;0.00;;;;;;;20.62;100.00;99593.41;5017043;28;20052;-53
2023/07/23 09:01:56;;;;;;;0.00;0.00;;;;;;;20.71;100.00;99588.25;5017345;28;20053;-50
2023/07/23 09:04:22;;;;;;;1.17;0.10;;;;;;;20.62;100.00;99585.31;5020628;28;20023;-48
2023/07/23 09:06:48;;;;;;;0.00;0.00;;;;;;;20.72;100.00;99585.25;5018055;28;20474;-54
2023/07/23 09:09:14;;;;;;;0.77;0.40;;;;;;;20.94;100.00;99592.94;5014351;28;20474;-48
2023/07/23 09:11:39;;;;;;;0.22;0.10;;;;;;;21.10;100.00;99582.84;5018015;28;21398;-51
2023/07/23 09:14:10;;;;;;;0.63;0.00;;;;;;;21.50;100.00;99587.09;5020339;28;20040;-50
2023/07/23 09:16:53;;;;;;;2.05;0.00;;;;;;;21.85;100.00;99578.88;5019249;28;20192;-57
2023/07/23 09:19:26;;;;;;;0.03;0.00;;;;;;;22.07;100.00;99581.03;5019618;28;20451;-54
2023/07/23 09:21:56;;;;;;;0.00;0.00;;;;;;;22.22;100.00;99572.78;5016940;28;20555;-60
2023/07/23 09:24:22;;;;;;;0.00;0.00;;;;;;;22.38;100.00;99574.19;5023464;28;20026;-59
2023/07/23 09:26:47;;;;;;;3.55;0.47;;;;;;;22.51;100.00;99566.44;5021870;28;20077;-54
2023/07/23 09:29:13;;;;;;;0.20;0.20;;;;;;;22.60;100.00;99572.81;5018787;28;20029;-56
2023/07/23 09:31:44;;;;;;;1.70;0.20;;;;;;;22.24;100.00;99559.78;5025499;28;20060;-57
2023/07/23 09:34:10;;;;;;;0.00;0.00;;;;;;;22.03;100.00;99588.13;5024078;28;20475;-58
2023/07/23 09:36:36;;;;;;;0.00;0.00;;;;;;;21.56;100.00;99588.63;5018932;28;20060;-56
2023/07/23 09:39:07;;;;;;;0.28;0.13;;;;;;;21.10;100.00;99597.09;5025149;28;20037;-58
2023/07/23 09:41:35;;;;;;;0.85;0.32;;;;;;;20.87;100.00;99603.22;5021256;28;20041;-58
2023/07/23 09:44:11;;;;;;;0.30;0.00;;;;;;;20.62;100.00;99604.19;5025479;28;20421;-62
2023/07/23 09:46:39;;;;;;;0.40;0.10;;;;;;;20.66;100.00;99610.63;5023826;28;20066;-56
2023/07/23 09:49:05;;;;;;;0.17;0.17;;;;;;;20.54;100.00;99610.13;5024412;28;20026;-55
2023/07/23 09:51:36;;;;;;;0.38;0.10;;;;;;;20.47;100.00;99632.78;5022014;28;20350;-53
2023/07/23 09:54:02;;;;;;;2.83;0.10;;;;;;;20.56;100.00;99622.25;5022693;28;20064;-49
2023/07/23 09:56:28;;;;;;;0.25;0.00;;;;;;;20.76;100.00;99628.63;5021822;28;20092;-52
2023/07/23 09:58:54;;;;;;;0.15;0.08;;;;;;;21.08;100.00;99626.22;5019585;28;20128;-55
2023/07/23 10:01:20;;;;;;;0.15;0.10;;;;;;;21.27;100.00;99622.84;5017515;28;20941;-57
2023/07/23 10:03:47;;;;;;;0.95;0.13;;;;;;;21.44;100.00;99611.69;5025285;28;20909;-48
2023/07/23 10:06:20;;;;;;;0.75;0.47;;;;;;;21.80;100.00;99619.41;5024783;28;20487;-59
2023/07/23 10:08:47;;;;;;;0.35;0.35;;;;;;;22.35;100.00;99622.56;5015935;28;20519;-55
2023/07/23 10:11:16;;;;;;;1.58;0.55;;;;;;;22.49;100.00;99592.97;5017605;28;20057;-61
2023/07/23 10:13:43;;;;;;;0.65;0.10;;;;;;;22.45;100.00;99590.03;5021779;28;20080;-51
2023/07/23 10:16:13;;;;;;;1.75;0.25;;;;;;;22.55;100.00;99594.50;5026292;28;20025;-52
2023/07/23 10:18:41;;;;;;;2.50;0.00;;;;;;;22.39;100.00;99605.50;5016443;28;20025;-53
2023/07/23 10:21:08;;;;;;;0.32;0.32;;;;;;;22.17;100.00;99616.00;5016440;28;20030;-52
2023/07/23 10:23:35;;;;;;;1.13;0.00;;;;;;;21.91;100.00;99621.69;5022174;28;20125;-63
2023/07/23 10:26:24;;;;;;;0.30;0.00;;;;;;;21.76;100.00;99630.78;5022253;28;20072;-54
2023/07/23 10:28:55;;;;;;;2.13;0.08;;;;;;;21.48;100.00;99632.41;5022055;28;20036;-56
2023/07/23 10:31:23;;;;;;;6.88;0.80;;;;;;;21.49;100.00;99628.59;5019633;28;20085;-52
2023/07/23 10:33:50;;;;;;;1.85;0.73;;;;;;;22.05;100.00;99643.44;5024964;28;20124;-62
2023/07/23 10:36:16;;;;;;;0.30;0.20;;;;;;;22.42;100.00;99626.53;5017215;28;20253;-50
2023/07/23 10:38:41;;;;;;;0.10;0.00;;;;;;;22.45;100.00;99632.44;5023315;28;20426;-54
2023/07/23 10:41:07;;;;;;;0.08;0.08;;;;;;;22.01;100.00;99647.78;5014079;28;20450;-59
2023/07/23 10:43:40;;;;;;;0.82;0.10;;;;;;;21.87;100.00;99636.88;5022730;28;20473;-52
2023/07/23 10:46:08;;;;;;;0.98;0.10;;;;;;;21.88;100.00;99630.38;5015223;28;20416;-55
2023/07/23 10:48:51;;;;;;;1.02;0.10;;;;;;;22.10;100.00;99640.66;5021257;28;20045;-55
2023/07/23 10:51:21;;;;;;;0.10;0.10;;;;;;;22.27;100.00;99632.13;5020205;28;20490;-56
2023/07/23 10:53:57;;;;;;;0.25;0.25;;;;;;;22.32;100.00;99626.66;5016446;28;20487;-58
2023/07/23 10:56:26;;;;;;;2.15;0.20;;;;;;;22.28;100.00;99620.25;5016235;28;20598;-59
2023/07/23 10:58:57;;;;;;;0.38;0.25;;;;;;;22.50;100.00;99608.88;5018090;28;20037;-58
2023/07/23 11:01:24;;;;;;;0.50;0.10;;;;;;;22.93;100.00;99616.88;5014953;28;20125;-53
2023/07/23 11:03:53;;;;;;;0.13;0.13;;;;;;;23.10;100.00;99602.84;5016418;28;20711;-67
2023/07/23 11:06:26;;;;;;;0.40;0.10;;;;;;;23.24;100.00;99608.31;5015436;28;20037;-59
2023/07/23 11:08:52;;;;;;;0.75;0.30;;;;;;;23.04;100.00;99610.25;5016903;28;20033;-61
2023/07/23 11:11:27;;;;;;;0.95;0.60;;;;;;;22.78;100.00;99600.91;5024626;28;20437;-58
2023/07/23 11:13:52;;;;;;;0.93;0.93;;;;;;;22.43;100.00;99605.72;5023775;28;20402;-53
2023/07/23 11:16:18;;;;;;;0.77;0.50;;;;;;;22.19;100.00;99620.06;5016650;28;20029;-60
2023/07/23 11:18:44;;;;;;;0.55;0.30;;;;;;;21.99;100.00;99626.50;5021548;28;20067;-57
2023/07/23 11:21:14;;;;;;;0.57;0.45;;;;;;;22.09;100.00;99640.94;5018940;28;20033;-53